createdAt,value
2022-12-08T00:00:37.525Z,94820.78
2022-12-08T00:03:42.522Z,94820.16
2022-12-08T00:07:03.004Z,94826.88
2022-12-08T00:10:25.199Z,94834.25
2022-12-08T00:13:30.124Z,94848.97
2022-12-08T00:16:33.218Z,94863.84
2022-12-08T00:19:40.191Z,94860.88
2022-12-08T00:22:43.186Z,94866.50
2022-12-08T00:25:46.182Z,94871.81
2022-12-08T00:28:49.818Z,94870.25
2022-12-08T00:31:52.973Z,94867.91
2022-12-08T00:34:57.361Z,94873.22
2022-12-08T00:38:00.958Z,94868.69
2022-12-08T00:41:04.839Z,94871.34
2022-12-08T00:44:08.279Z,94872.44
2022-12-08T00:47:11.608Z,94882.78
2022-12-08T00:50:16.018Z,94878.53
2022-12-08T00:53:21.350Z,94869.16
2022-12-08T00:56:32.819Z,94880.91
2022-12-08T00:59:41.196Z,94885.00
2022-12-08T01:02:54.182Z,94883.25
2022-12-08T01:06:08.724Z,94890.16
2022-12-08T01:09:14.063Z,94872.44
2022-12-08T01:12:17.214Z,94866.50
2022-12-08T01:15:20.244Z,94871.22
2022-12-08T01:18:23.380Z,94881.06
2022-12-08T01:21:28.469Z,94876.06
2022-12-08T01:24:31.505Z,94884.50
2022-12-08T01:27:34.548Z,94886.88
2022-12-08T01:30:39.973Z,94896.25
2022-12-08T01:33:43.504Z,94885.59
2022-12-08T01:36:48.108Z,94871.22
2022-12-08T01:39:51.080Z,94870.13
2022-12-08T01:42:54.179Z,94860.25
2022-12-08T01:45:57.341Z,94868.53
2022-12-08T01:49:06.894Z,94873.28
2022-12-08T01:52:17.566Z,94862.91
2022-12-08T01:55:24.071Z,94832.50
2022-12-08T01:58:31.329Z,94824.38
2022-12-08T02:01:34.768Z,94837.09
2022-12-08T02:04:37.937Z,94827.06
2022-12-08T02:07:42.600Z,94825.00
2022-12-08T02:10:45.703Z,94830.97
2022-12-08T02:13:51.575Z,94837.09
2022-12-08T02:17:04.459Z,94825.94
2022-12-08T02:20:39.213Z,94835.50
2022-12-08T02:23:52.951Z,94840.84
2022-12-08T02:27:19.598Z,94833.31
2022-12-08T02:30:26.580Z,94838.19
2022-12-08T02:33:56.547Z,94833.16
2022-12-08T02:37:09.360Z,94838.47
2022-12-08T02:40:20.681Z,94848.97
2022-12-08T02:43:33.490Z,94837.53
2022-12-08T02:46:44.586Z,94847.56
2022-12-08T02:49:49.173Z,94846.47
2022-12-08T02:52:52.332Z,94842.72
2022-12-08T02:56:09.694Z,94833.94
2022-12-08T02:59:26.113Z,94837.69
2022-12-08T03:02:51.099Z,94832.38
2022-12-08T03:06:08.347Z,94848.03
2022-12-08T03:09:18.826Z,94841.44
2022-12-08T03:12:27.247Z,94831.28
2022-12-08T03:15:32.614Z,94823.75
2022-12-08T03:18:44.421Z,94827.84
2022-12-08T03:21:52.529Z,94836.59
2022-12-08T03:24:57.083Z,94833.47
2022-12-08T03:28:01.592Z,94834.25
2022-12-08T03:31:09.161Z,94823.31
2022-12-08T03:34:15.271Z,94821.56
2022-12-08T03:37:19.996Z,94829.72
2022-12-08T03:40:23.016Z,94827.84
2022-12-08T03:43:26.004Z,94833.16
2022-12-08T03:49:33.195Z,94825.19
2022-12-08T03:52:37.618Z,94835.03
2022-12-08T03:55:40.636Z,94842.72
2022-12-08T03:58:44.724Z,94839.28
2022-12-08T04:01:47.887Z,94839.28
2022-12-08T04:04:51.023Z,94835.34
2022-12-08T04:07:58.498Z,94836.41
2022-12-08T04:11:01.617Z,94843.50
2022-12-08T04:14:04.612Z,94853.66
2022-12-08T04:17:07.628Z,94849.13
2022-12-08T04:20:11.493Z,94842.72
2022-12-08T04:23:16.020Z,94848.66
2022-12-08T04:26:19.062Z,94836.75
2022-12-08T04:29:22.686Z,94854.75
2022-12-08T04:32:25.696Z,94844.13
2022-12-08T04:35:29.352Z,94852.09
2022-12-08T04:38:33.851Z,94849.44
2022-12-08T04:41:36.903Z,94856.47
2022-12-08T04:44:39.954Z,94853.81
2022-12-08T04:47:43.022Z,94861.63
2022-12-08T04:50:47.068Z,94854.13
2022-12-08T04:53:51.544Z,94856.28
2022-12-08T04:56:54.602Z,94862.72
2022-12-08T04:59:57.674Z,94861.31
2022-12-08T05:03:00.874Z,94860.09
2022-12-08T05:06:04.527Z,94864.47
2022-12-08T05:09:09.067Z,94869.53
2022-12-08T05:12:12.256Z,94863.91
2022-12-08T05:15:15.448Z,94867.03
2022-12-08T05:18:18.414Z,94875.19
2022-12-08T05:21:21.383Z,94875.63
2022-12-08T05:24:25.944Z,94875.44
2022-12-08T05:27:29.050Z,94878.09
2022-12-08T05:30:32.165Z,94878.72
2022-12-08T05:33:35.386Z,94879.81
2022-12-08T05:36:38.390Z,94884.66
2022-12-08T05:39:42.758Z,94886.03
2022-12-08T05:42:45.798Z,94875.41
2022-12-08T05:45:48.931Z,94903.41
2022-12-08T05:48:51.950Z,94899.03
2022-12-08T05:51:55.000Z,94903.88
2022-12-08T05:54:59.459Z,94901.22
2022-12-08T05:58:07.648Z,94881.50
2022-12-08T06:01:20.496Z,94891.69
2022-12-08T06:04:23.548Z,94894.03
2022-12-08T06:07:26.631Z,94890.59
2022-12-08T06:10:31.264Z,94890.59
2022-12-08T06:13:34.297Z,94892.16
2022-12-08T06:16:37.353Z,94878.38
2022-12-08T06:19:40.433Z,94904.84
2022-12-08T06:22:43.517Z,94908.59
2022-12-08T06:25:48.022Z,94912.84
2022-12-08T06:28:51.838Z,94926.13
2022-12-08T06:31:55.005Z,94908.91
2022-12-08T06:34:58.061Z,94931.94
2022-12-08T06:38:01.035Z,94917.06
2022-12-08T06:41:05.918Z,94931.34
2022-12-08T06:44:09.286Z,94925.69
2022-12-08T06:47:12.383Z,94920.69
2022-12-08T06:50:15.690Z,94916.84
2022-12-08T06:53:19.470Z,94915.50
2022-12-08T06:56:27.986Z,94909.78
2022-12-08T06:59:31.062Z,94916.91
2022-12-08T07:02:34.501Z,94900.00
2022-12-08T07:05:38.230Z,94904.78
2022-12-08T07:08:41.254Z,94913.28
2022-12-08T07:11:45.691Z,94922.44
2022-12-08T07:14:48.717Z,94917.31
2022-12-08T07:17:56.386Z,94908.56
2022-12-08T07:21:05.507Z,94929.16
2022-12-08T07:24:09.048Z,94928.81
2022-12-08T07:27:13.464Z,94933.44
2022-12-08T07:30:16.561Z,94931.97
2022-12-08T07:33:19.553Z,94941.63
2022-12-08T07:36:23.133Z,94949.75
2022-12-08T07:39:26.305Z,94963.38
2022-12-08T07:42:30.748Z,94966.66
2022-12-08T07:45:33.734Z,94967.75
2022-12-08T07:48:36.780Z,94952.84
2022-12-08T07:51:39.859Z,94953.94
2022-12-08T07:54:42.958Z,94952.38
2022-12-08T07:57:47.403Z,94950.78
2022-12-08T08:00:50.524Z,94947.97
2022-12-08T08:03:54.140Z,94942.28
2022-12-08T08:06:57.178Z,94959.22
2022-12-08T08:10:00.185Z,94953.41
2022-12-08T08:13:04.769Z,94962.50
2022-12-08T08:16:09.763Z,94956.69
2022-12-08T08:19:12.880Z,94938.59
2022-12-08T08:22:15.956Z,94954.31
2022-12-08T08:25:20.477Z,94935.31
2022-12-08T08:28:24.896Z,94953.66
2022-12-08T08:31:28.073Z,94966.06
2022-12-08T08:34:31.155Z,94963.28
2022-12-08T08:37:34.243Z,94952.16
2022-12-08T08:40:37.395Z,94955.91
2022-12-08T08:43:41.905Z,94949.50
2022-12-08T08:46:45.378Z,94957.47
2022-12-08T08:49:48.492Z,94938.00
2022-12-08T08:52:51.495Z,94942.59
2022-12-08T08:55:54.528Z,94942.28
2022-12-08T08:58:58.943Z,94943.06
2022-12-08T09:02:02.052Z,94943.06
2022-12-08T09:05:06.078Z,94936.34
2022-12-08T09:08:09.369Z,94937.28
2022-12-08T09:11:12.909Z,94933.56
2022-12-08T09:14:17.435Z,94926.53
2022-12-08T09:17:20.450Z,94926.41
2022-12-08T09:20:23.813Z,94914.34
2022-12-08T09:23:32.112Z,94915.31
2022-12-08T09:26:38.191Z,94909.38
2022-12-08T09:29:42.614Z,94910.34
2022-12-08T09:32:45.631Z,94895.47
2022-12-08T09:35:48.914Z,94898.31
2022-12-08T09:38:53.806Z,94894.09
2022-12-08T09:42:01.051Z,94890.66
2022-12-08T09:45:13.346Z,94882.97
2022-12-08T09:48:20.395Z,94895.66
2022-12-08T09:51:25.980Z,94891.59
2022-12-08T09:54:35.606Z,94896.75
2022-12-08T09:57:38.632Z,94903.34
2022-12-08T10:00:43.101Z,94895.66
2022-12-08T10:03:46.539Z,94888.00
2022-12-08T10:07:00.458Z,94874.19
2022-12-08T10:10:08.841Z,94852.25
2022-12-08T10:13:19.932Z,94855.38
2022-12-08T10:16:32.590Z,94848.00
2022-12-08T10:19:36.377Z,94850.69
2022-12-08T10:22:44.535Z,94857.59
2022-12-08T10:25:49.942Z,94854.13
2022-12-08T10:28:53.101Z,94854.59
2022-12-08T10:32:00.782Z,94850.84
2022-12-08T10:35:07.522Z,94849.59
2022-12-08T10:38:18.777Z,94844.25
2022-12-08T10:41:21.892Z,94854.13
2022-12-08T10:44:24.975Z,94847.72
2022-12-08T10:47:30.870Z,94839.41
2022-12-08T10:50:36.743Z,94821.53
2022-12-08T10:53:47.456Z,94813.56
2022-12-08T10:56:55.638Z,94819.19
2022-12-08T10:59:58.824Z,94813.69
2022-12-08T11:03:05.313Z,94824.22
2022-12-08T11:06:16.071Z,94814.34
2022-12-08T11:09:34.872Z,94802.09
2022-12-08T11:12:37.958Z,94814.81
2022-12-08T11:15:41.565Z,94810.88
2022-12-08T11:18:48.258Z,94807.75
2022-12-08T11:21:51.331Z,94782.13
2022-12-08T11:25:02.893Z,94788.41
2022-12-08T11:28:11.694Z,94774.31
2022-12-08T11:31:24.112Z,94763.34
2022-12-08T11:34:36.091Z,94779.16
2022-12-08T11:37:41.300Z,94773.06
2022-12-08T11:40:45.512Z,94753.63
2022-12-08T11:43:56.865Z,94756.59
2022-12-08T11:47:03.582Z,94770.38
2022-12-08T11:50:21.736Z,94775.41
2022-12-08T11:53:30.556Z,94762.56
2022-12-08T11:56:36.123Z,94755.84
2022-12-08T11:59:44.427Z,94762.78
2022-12-08T12:02:55.257Z,94753.69
2022-12-08T12:10:06.918Z,94748.94
2022-12-08T12:13:24.092Z,94740.47
2022-12-08T12:17:01.312Z,94744.22
2022-12-08T12:20:14.232Z,94741.09
2022-12-08T12:23:24.463Z,94740.31
2022-12-08T12:26:32.218Z,94753.16
2022-12-08T12:29:37.967Z,94753.47
2022-12-08T12:32:46.899Z,94742.03
2022-12-08T12:36:47.950Z,94738.59
2022-12-08T12:39:59.148Z,94731.69
2022-12-08T12:43:26.172Z,94725.06
2022-12-08T12:46:56.996Z,94735.75
2022-12-08T12:50:10.411Z,94729.66
2022-12-08T12:53:49.064Z,94728.09
2022-12-08T12:56:55.555Z,94729.66
2022-12-08T13:00:10.349Z,94727.59
2022-12-08T13:03:16.109Z,94729.16
2022-12-08T13:06:25.692Z,94722.25
2022-12-08T13:09:32.870Z,94718.03
2022-12-08T13:12:37.367Z,94727.59
2022-12-08T13:15:42.822Z,94716.94
2022-12-08T13:18:50.156Z,94718.34
2022-12-08T13:21:53.602Z,94718.66
2022-12-08T13:25:36.983Z,94729.78
2022-12-08T13:29:22.928Z,94712.22
2022-12-08T13:36:29.857Z,94715.69
2022-12-08T13:39:40.791Z,94710.19
2022-12-08T13:42:49.013Z,94706.91
2022-12-08T13:57:00.780Z,94705.03
2022-12-08T13:59:45.722Z,94713.31
2022-12-08T14:02:52.203Z,94715.84
2022-12-08T14:06:12.968Z,94717.41
2022-12-08T14:09:20.119Z,94714.75
2022-12-08T14:12:26.106Z,94731.50
2022-12-08T14:15:34.177Z,94727.25
2022-12-08T14:18:41.472Z,94708.94
2022-12-08T14:21:49.015Z,94721.16
2022-12-08T14:24:54.040Z,94726.47
2022-12-08T14:28:01.071Z,94721.94
2022-12-08T14:31:05.665Z,94723.03
2022-12-08T14:34:12.135Z,94709.09
2022-12-08T14:37:15.349Z,94727.25
2022-12-08T14:40:24.253Z,94721.16
2022-12-08T14:43:29.241Z,94709.25
2022-12-08T14:46:32.263Z,94719.75
2022-12-08T14:49:39.125Z,94716.63
2022-12-08T14:52:44.755Z,94712.06
2022-12-08T14:55:49.714Z,94704.41
2022-12-08T14:59:05.592Z,94713.16
2022-12-08T15:02:23.051Z,94705.97
2022-12-08T15:05:31.968Z,94707.84
2022-12-08T15:08:45.869Z,94710.50
2022-12-08T15:11:48.971Z,94706.75
2022-12-08T15:15:00.546Z,94707.22
2022-12-08T15:18:12.461Z,94714.75
2022-12-08T15:21:16.970Z,94713.94
2022-12-08T15:24:23.553Z,94718.81
2022-12-08T15:27:27.167Z,94732.59
2022-12-08T15:30:30.381Z,94740.09
2022-12-08T15:33:33.380Z,94742.78
2022-12-08T15:36:38.524Z,94735.25
2022-12-08T15:39:41.572Z,94735.88
2022-12-08T15:42:44.692Z,94724.28
2022-12-08T15:45:57.835Z,94736.97
2022-12-08T15:49:01.881Z,94743.69
2022-12-08T15:52:12.025Z,94754.03
2022-12-08T15:55:15.673Z,94752.16
2022-12-08T16:01:46.390Z,94741.81
2022-12-08T16:08:44.695Z,94729.78
2022-12-08T16:12:06.378Z,94731.19
2022-12-08T16:18:37.513Z,94726.16
2022-12-08T16:22:17.746Z,94721.63
2022-12-08T16:25:19.216Z,94742.91
2022-12-08T16:28:52.913Z,94736.81
2022-12-08T16:31:46.352Z,94742.13
2022-12-08T16:34:50.213Z,94729.41
2022-12-08T16:37:53.204Z,94763.56
2022-12-08T16:41:15.042Z,94764.06
2022-12-08T16:44:18.152Z,94781.63
2022-12-08T16:47:21.138Z,94772.72
2022-12-08T16:50:26.633Z,94769.13
2022-12-08T16:53:29.629Z,94761.31
2022-12-08T16:56:34.063Z,94766.16
2022-12-08T16:59:39.152Z,94766.00
2022-12-08T17:02:42.185Z,94758.47
2022-12-08T17:05:45.306Z,94753.00
2022-12-08T17:08:48.367Z,94742.16
2022-12-08T17:11:52.835Z,94756.72
2022-12-08T17:14:55.826Z,94765.63
2022-12-08T17:17:58.859Z,94767.22
2022-12-08T17:21:01.920Z,94752.31
2022-12-08T17:24:05.226Z,94772.06
2022-12-08T17:27:09.733Z,94760.94
2022-12-08T17:30:15.847Z,94770.03
2022-12-08T17:33:22.245Z,94772.69
2022-12-08T17:36:29.960Z,94759.06
2022-12-08T17:39:33.035Z,94759.38
2022-12-08T17:42:38.772Z,94750.91
2022-12-08T17:45:43.207Z,94749.81
2022-12-08T17:48:46.315Z,94759.38
2022-12-08T17:51:50.059Z,94755.13
2022-12-08T17:54:53.058Z,94760.31
2022-12-08T17:57:57.537Z,94768.63
2022-12-08T18:01:00.560Z,94770.19
2022-12-08T18:04:06.797Z,94766.94
2022-12-08T18:07:09.922Z,94770.06
2022-12-08T18:10:13.317Z,94773.69
2022-12-08T18:13:17.725Z,94781.66
2022-12-08T18:16:22.771Z,94788.41
2022-12-08T18:19:26.332Z,94804.69
2022-12-08T18:22:29.323Z,94788.66
2022-12-08T18:25:32.483Z,94805.78
2022-12-08T18:28:37.549Z,94796.81
2022-12-08T18:31:40.615Z,94796.69
2022-12-08T18:34:43.614Z,94798.59
2022-12-08T18:37:47.099Z,94815.34
2022-12-08T18:40:50.190Z,94809.53
2022-12-08T18:43:56.090Z,94819.56
2022-12-08T18:46:59.251Z,94817.53
2022-12-08T18:50:02.321Z,94810.28
2022-12-08T18:53:05.471Z,94812.69
2022-12-08T18:56:09.545Z,94812.69
2022-12-08T18:59:14.553Z,94814.75
2022-12-08T19:02:18.506Z,94806.56
2022-12-08T19:05:21.766Z,94827.50
2022-12-08T19:08:31.040Z,94823.72
2022-12-08T19:11:34.555Z,94817.72
2022-12-08T19:14:39.029Z,94807.56
2022-12-08T19:17:42.194Z,94813.38
2022-12-08T19:20:45.322Z,94823.41
2022-12-08T19:23:49.335Z,94813.31
2022-12-08T19:26:52.983Z,94807.75
2022-12-08T19:29:57.815Z,94801.94
2022-12-08T19:33:01.031Z,94804.28
2022-12-08T19:36:06.961Z,94794.13
2022-12-08T19:39:32.036Z,94794.75
2022-12-08T19:42:52.499Z,94806.97
2022-12-08T19:45:57.069Z,94818.09
2022-12-08T19:49:00.273Z,94832.19
2022-12-08T19:52:03.539Z,94818.41
2022-12-08T19:55:07.107Z,94840.97
2022-12-08T19:58:11.287Z,94832.19
2022-12-08T20:01:17.482Z,94843.47
2022-12-08T20:04:20.912Z,94831.53
2022-12-08T20:07:24.081Z,94846.72
2022-12-08T20:10:29.927Z,94833.22
2022-12-08T20:13:42.086Z,94860.63
2022-12-08T20:16:46.599Z,94873.16
2022-12-08T20:19:49.873Z,94883.81
2022-12-08T20:22:52.906Z,94875.34
2022-12-08T20:25:55.992Z,94892.44
2022-12-08T20:28:59.050Z,94888.19
2022-12-08T20:32:03.677Z,94899.16
2022-12-08T20:35:07.518Z,94880.81
2022-12-08T20:38:10.932Z,94906.06
2022-12-08T20:41:16.125Z,94856.25
2022-12-08T20:44:19.272Z,94892.75
2022-12-08T20:47:23.783Z,94850.44
2022-12-08T20:50:27.628Z,94881.00
2022-12-08T20:53:30.961Z,94842.13
2022-12-08T20:56:34.365Z,94874.09
2022-12-08T20:59:37.565Z,94866.41
2022-12-08T21:02:48.609Z,94853.09
2022-12-08T21:05:54.193Z,94878.16
2022-12-08T21:08:57.591Z,94865.16
2022-12-08T21:12:00.811Z,94882.72
2022-12-08T21:15:03.936Z,94875.66
2022-12-08T21:18:08.577Z,94885.53
2022-12-08T21:21:15.456Z,94878.47
2022-12-08T21:24:19.382Z,94894.31
2022-12-08T21:27:22.522Z,94913.25
2022-12-08T21:30:25.725Z,94887.88
2022-12-08T21:33:30.351Z,94887.56
2022-12-08T21:36:34.030Z,94892.38
2022-12-08T21:39:37.375Z,94891.59
2022-12-08T21:42:46.245Z,94894.56
2022-12-08T21:45:49.616Z,94856.81
2022-12-08T21:48:54.286Z,94874.19
2022-12-08T21:51:57.613Z,94897.06
2022-12-08T21:55:01.021Z,94895.50
2022-12-08T21:58:04.126Z,94890.16
2022-12-08T22:01:08.096Z,94905.66
2022-12-08T22:04:13.373Z,94881.22
2022-12-08T22:07:17.051Z,94896.88
2022-12-08T22:10:21.126Z,94904.72
2022-12-08T22:13:24.265Z,94888.44
2022-12-08T22:16:27.321Z,94904.88
2022-12-08T22:19:33.041Z,94897.19
2022-12-08T22:22:36.561Z,94869.00
2022-12-08T22:25:39.811Z,94898.28
2022-12-08T22:28:44.437Z,94880.44
2022-12-08T22:31:47.765Z,94889.81
2022-12-08T22:34:52.303Z,94884.97
2022-12-08T22:37:55.313Z,94900.16
2022-12-08T22:40:58.325Z,94919.59
2022-12-08T22:44:01.333Z,94902.53
2022-12-08T22:47:04.394Z,94910.66
2022-12-08T22:50:10.053Z,94897.03
2022-12-08T22:53:13.949Z,94923.66
2022-12-08T22:56:17.737Z,94884.50
2022-12-08T22:59:21.026Z,94901.88
2022-12-08T23:02:24.111Z,94890.13
2022-12-08T23:05:28.631Z,94877.59
2022-12-08T23:08:31.802Z,94882.94
2022-12-08T23:11:35.991Z,94863.44
2022-12-08T23:14:39.096Z,94864.00
2022-12-08T23:17:42.455Z,94886.06
2022-12-08T23:20:47.606Z,94881.84
2022-12-08T23:23:50.949Z,94858.19
2022-12-08T23:26:54.053Z,94861.63
2022-12-08T23:29:57.274Z,94884.81
2022-12-08T23:33:00.546Z,94877.59
2022-12-08T23:36:05.438Z,94886.78
2022-12-08T23:39:08.636Z,94878.38
2022-12-08T23:42:11.990Z,94883.41
2022-12-08T23:45:15.129Z,94889.03
2022-12-08T23:48:18.526Z,94882.94
2022-12-08T23:51:23.075Z,94866.97
2022-12-08T23:54:26.224Z,94885.91
2022-12-08T23:57:29.284Z,94893.59
